createdAt,value
2017-09-16T00:11:05.388Z,17.50
2017-09-16T00:21:07.480Z,19.05
2017-09-16T00:23:34.611Z,18.90
2017-09-16T00:26:02.288Z,15.70
2017-09-16T00:28:30.973Z,16.80
2017-09-16T00:33:29.447Z,17.83
2017-09-16T00:38:28.111Z,18.80
2017-09-16T00:56:12.869Z,19.83
2017-09-16T01:01:14.196Z,20.95
2017-09-16T01:06:13.860Z,20.83
2017-09-16T01:11:14.265Z,17.10
2017-09-16T01:13:41.939Z,24.33
2017-09-16T01:16:10.608Z,17.42
2017-09-16T01:23:44.283Z,23.40
2017-09-16T01:31:16.021Z,19.12
2017-09-16T01:53:55.838Z,26.60
2017-09-16T01:59:00.796Z,22.42
2017-09-16T02:01:28.560Z,23.38
2017-09-16T02:06:26.709Z,26.08
2017-09-16T02:08:54.320Z,25.08
2017-09-16T02:11:21.471Z,25.48
2017-09-16T02:16:21.101Z,25.98
2017-09-16T02:26:24.094Z,22.90
2017-09-16T02:31:22.390Z,25.77
2017-09-16T02:33:56.698Z,24.02
2017-09-16T02:38:56.357Z,22.48
2017-09-16T02:41:23.520Z,20.33
2017-09-16T02:43:54.908Z,24.45
2017-09-16T02:46:22.487Z,24.85
2017-09-16T02:51:21.287Z,22.23
2017-09-16T02:56:24.081Z,23.27
2017-09-16T03:09:07.012Z,21.73
2017-09-16T03:14:11.018Z,23.67
2017-09-16T03:21:59.520Z,25.77
2017-09-16T03:24:28.197Z,22.45
2017-09-16T03:32:03.770Z,21.55
2017-09-16T03:34:32.432Z,21.87
2017-09-16T03:37:03.716Z,22.65
2017-09-16T03:39:33.988Z,23.83
2017-09-16T03:49:42.147Z,24.08
2017-09-16T03:52:09.701Z,24.00
2017-09-16T03:54:36.887Z,18.17
2017-09-16T03:59:38.159Z,24.37
2017-09-16T04:02:12.711Z,26.92
2017-09-16T04:17:20.682Z,28.23
2017-09-16T04:19:48.311Z,30.92
2017-09-16T04:22:15.505Z,32.72
2017-09-16T04:24:42.676Z,27.62
2017-09-16T04:27:11.174Z,31.23
2017-09-16T04:39:45.699Z,41.03
2017-09-16T04:44:44.488Z,38.10
2017-09-16T04:50:02.116Z,36.53
2017-09-16T05:02:48.092Z,38.42
2017-09-16T05:05:15.247Z,38.90
2017-09-16T05:07:43.733Z,35.60
2017-09-16T05:10:13.076Z,26.85
2017-09-16T05:15:16.116Z,28.80
2017-09-16T05:17:43.807Z,30.33
2017-09-16T05:20:11.815Z,29.15
2017-09-16T05:22:42.612Z,30.92
2017-09-16T05:25:16.130Z,28.40
2017-09-16T05:30:16.604Z,23.65
2017-09-16T05:32:43.703Z,28.02
2017-09-16T05:37:42.995Z,25.10
2017-09-16T05:47:45.328Z,26.30
2017-09-16T05:50:16.488Z,23.58
2017-09-16T05:52:45.179Z,23.70
2017-09-16T05:55:19.283Z,20.23
2017-09-16T06:02:55.010Z,19.90
2017-09-16T06:10:33.340Z,17.87
2017-09-16T06:13:00.184Z,17.35
2017-09-16T06:15:27.248Z,17.20
2017-09-16T06:17:54.423Z,20.50
2017-09-16T06:20:21.450Z,21.30
2017-09-16T06:22:48.902Z,14.05
2017-09-16T06:25:16.076Z,18.62
2017-09-16T06:27:43.283Z,14.52
2017-09-16T06:32:41.522Z,15.63
2017-09-16T06:35:08.749Z,18.90
2017-09-16T06:37:37.755Z,16.50
2017-09-16T06:42:36.132Z,16.98
2017-09-16T06:45:03.197Z,15.98
2017-09-16T06:47:30.340Z,14.43
2017-09-16T06:49:57.488Z,12.60
2017-09-16T06:52:27.974Z,12.40
2017-09-16T06:54:55.249Z,14.77
2017-09-16T06:57:22.040Z,14.00
2017-09-16T06:59:50.723Z,12.65
2017-09-16T07:02:18.393Z,14.80
2017-09-16T07:04:45.311Z,12.85
2017-09-16T07:07:12.345Z,13.38
2017-09-16T07:09:40.043Z,12.48
2017-09-16T07:12:07.599Z,11.15
2017-09-16T07:14:35.200Z,11.20
2017-09-16T07:17:02.877Z,12.10
2017-09-16T07:22:01.892Z,12.65
2017-09-16T07:24:28.707Z,13.80
2017-09-16T07:26:55.532Z,11.18
2017-09-16T07:29:22.578Z,13.25
2017-09-16T07:31:49.398Z,11.48
2017-09-16T07:34:17.441Z,11.55
2017-09-16T07:36:44.497Z,12.37
2017-09-16T07:39:11.529Z,10.65
2017-09-16T07:41:39.513Z,10.98
2017-09-16T07:44:06.634Z,10.35
2017-09-16T07:46:33.697Z,12.23
2017-09-16T07:49:00.695Z,9.35
2017-09-16T07:51:27.863Z,11.02
2017-09-16T07:53:55.362Z,13.48
2017-09-16T07:56:22.482Z,12.60
2017-09-16T07:58:49.240Z,11.82
2017-09-16T08:01:16.357Z,12.35
2017-09-16T08:03:43.952Z,14.87
2017-09-16T08:06:10.957Z,10.98
2017-09-16T08:08:37.725Z,11.30
2017-09-16T08:11:04.781Z,9.48
2017-09-16T08:13:31.940Z,8.60
2017-09-16T08:15:58.718Z,9.45
2017-09-16T08:18:25.792Z,8.50
2017-09-16T08:20:54.886Z,7.97
2017-09-16T08:23:22.077Z,8.82
2017-09-16T08:25:49.237Z,7.43
2017-09-16T08:28:16.323Z,8.40
2017-09-16T08:30:43.495Z,6.55
2017-09-16T08:33:10.475Z,8.15
2017-09-16T08:35:37.529Z,7.20
2017-09-16T08:38:04.596Z,5.65
2017-09-16T08:40:32.100Z,6.22
2017-09-16T08:42:58.876Z,5.95
2017-09-16T08:45:25.653Z,6.70
2017-09-16T08:47:52.792Z,6.95
2017-09-16T08:50:19.882Z,7.10
2017-09-16T08:52:47.030Z,8.55
2017-09-16T08:55:14.114Z,8.57
2017-09-16T08:57:41.264Z,8.55
2017-09-16T09:00:08.017Z,4.70
2017-09-16T09:02:34.802Z,7.07
2017-09-16T09:05:01.884Z,5.95
2017-09-16T09:07:29.083Z,6.60
2017-09-16T09:09:55.842Z,7.10
2017-09-16T09:12:22.826Z,8.05
2017-09-16T09:14:50.501Z,5.07
2017-09-16T09:17:17.494Z,5.68
2017-09-16T09:19:44.596Z,5.20
2017-09-16T09:22:11.632Z,4.50
2017-09-16T09:24:38.788Z,4.75
2017-09-16T09:27:05.788Z,4.87
2017-09-16T09:29:32.548Z,5.55
2017-09-16T09:31:59.352Z,4.70
2017-09-16T09:34:26.336Z,4.37
2017-09-16T09:36:53.333Z,5.12
2017-09-16T09:39:20.081Z,4.43
2017-09-16T09:41:47.933Z,3.20
2017-09-16T09:44:15.048Z,3.33
2017-09-16T09:46:42.200Z,3.75
2017-09-16T09:49:08.997Z,5.12
2017-09-16T09:51:35.748Z,4.75
2017-09-16T09:54:02.518Z,5.50
2017-09-16T09:56:29.555Z,3.15
2017-09-16T09:58:56.548Z,3.37
2017-09-16T10:01:23.673Z,3.10
2017-09-16T10:03:50.440Z,4.43
2017-09-16T10:06:17.197Z,3.12
2017-09-16T10:08:43.971Z,3.22
2017-09-16T10:11:11.073Z,4.55
2017-09-16T10:13:38.936Z,3.10
2017-09-16T10:16:06.547Z,4.10
2017-09-16T10:18:33.358Z,5.00
2017-09-16T10:21:00.514Z,3.28
2017-09-16T10:23:27.567Z,3.35
2017-09-16T10:25:57.472Z,3.80
2017-09-16T10:28:24.983Z,3.17
2017-09-16T10:30:52.164Z,2.90
2017-09-16T10:33:19.212Z,5.28
2017-09-16T10:35:46.228Z,3.42
2017-09-16T10:38:14.114Z,2.78
2017-09-16T10:40:41.290Z,3.55
2017-09-16T10:43:08.900Z,3.33
2017-09-16T10:45:36.504Z,2.60
2017-09-16T10:48:03.645Z,2.60
2017-09-16T10:50:30.406Z,4.00
2017-09-16T10:52:57.470Z,4.00
2017-09-16T10:55:24.500Z,3.28
2017-09-16T10:57:51.323Z,4.32
2017-09-16T11:00:18.363Z,2.53
2017-09-16T11:02:45.532Z,3.60
2017-09-16T11:05:12.286Z,2.30
2017-09-16T11:07:39.458Z,1.60
2017-09-16T11:10:06.500Z,6.07
2017-09-16T11:12:33.998Z,1.30
2017-09-16T11:15:01.742Z,1.58
2017-09-16T11:17:30.026Z,3.35
2017-09-16T11:19:57.224Z,3.10
2017-09-16T11:22:32.069Z,2.40
2017-09-16T11:24:59.072Z,3.08
2017-09-16T11:27:26.101Z,2.30
2017-09-16T11:29:53.792Z,3.25
2017-09-16T11:34:52.644Z,2.20
2017-09-16T11:39:52.647Z,2.83
2017-09-16T11:45:10.604Z,2.92
2017-09-16T11:50:12.036Z,4.10
2017-09-16T11:52:39.260Z,2.45
2017-09-16T11:55:06.553Z,3.97
2017-09-16T11:57:34.479Z,4.25
2017-09-16T12:00:01.660Z,3.10
2017-09-16T12:02:28.748Z,3.10
2017-09-16T12:04:56.835Z,3.55
2017-09-16T12:07:24.702Z,2.75
2017-09-16T12:09:51.854Z,4.15
2017-09-16T12:12:18.995Z,3.03
2017-09-16T12:14:46.615Z,2.90
2017-09-16T12:17:13.740Z,3.15
2017-09-16T12:19:40.803Z,4.05
2017-09-16T12:22:11.364Z,4.20
2017-09-16T12:24:39.089Z,3.20
2017-09-16T12:27:06.282Z,2.42
2017-09-16T12:29:33.569Z,2.55
2017-09-16T12:34:33.146Z,3.10
2017-09-16T12:37:00.172Z,5.50
2017-09-16T12:39:27.804Z,4.57
2017-09-16T12:41:55.469Z,4.20
2017-09-16T12:44:22.660Z,2.62
2017-09-16T12:46:51.301Z,5.55
2017-09-16T12:49:18.618Z,3.25
2017-09-16T12:51:45.716Z,3.30
2017-09-16T12:54:12.909Z,3.05
2017-09-16T12:56:41.428Z,3.35
2017-09-16T12:59:09.849Z,3.00
2017-09-16T13:01:37.118Z,2.80
2017-09-16T13:04:04.848Z,4.00
2017-09-16T13:06:32.007Z,3.80
2017-09-16T13:08:59.156Z,2.87
2017-09-16T13:13:57.356Z,2.65
2017-09-16T13:16:24.505Z,1.83
2017-09-16T13:18:52.393Z,2.87
2017-09-16T13:21:19.957Z,4.15
2017-09-16T13:23:51.853Z,2.70
2017-09-16T13:26:19.708Z,5.30
2017-09-16T13:31:17.732Z,2.53
2017-09-16T13:33:44.561Z,2.20
2017-09-16T13:41:17.681Z,2.12
2017-09-16T13:46:15.931Z,2.67
2017-09-16T13:48:44.587Z,2.15
2017-09-16T13:51:11.630Z,1.92
2017-09-16T13:53:38.733Z,2.45
2017-09-16T13:56:06.944Z,1.92
2017-09-16T13:58:34.672Z,1.75
2017-09-16T14:03:37.306Z,1.48
2017-09-16T14:06:04.547Z,2.15
2017-09-16T14:08:31.338Z,3.72
2017-09-16T14:13:30.237Z,2.70
2017-09-16T14:15:57.504Z,1.77
2017-09-16T14:18:29.513Z,1.20
2017-09-16T14:20:56.968Z,3.22
2017-09-16T14:23:24.110Z,2.35
2017-09-16T14:25:51.160Z,2.50
2017-09-16T14:28:22.104Z,1.00
2017-09-16T14:30:49.705Z,4.20
2017-09-16T14:33:16.502Z,1.15
2017-09-16T14:35:43.748Z,1.48
2017-09-16T14:38:10.752Z,1.50
2017-09-16T14:40:37.907Z,2.30
2017-09-16T14:43:04.987Z,1.05
2017-09-16T14:45:32.151Z,1.62
2017-09-16T14:47:59.384Z,2.33
2017-09-16T14:50:29.803Z,2.03
2017-09-16T14:52:56.977Z,1.40
2017-09-16T14:55:24.975Z,2.97
2017-09-16T14:57:52.177Z,1.45
2017-09-16T15:00:19.304Z,2.20
2017-09-16T15:02:46.103Z,1.75
2017-09-16T15:05:13.227Z,2.30
2017-09-16T15:07:40.312Z,3.35
2017-09-16T15:10:08.122Z,2.35
2017-09-16T15:12:35.695Z,3.92
2017-09-16T15:15:02.538Z,1.50
2017-09-16T15:17:30.423Z,2.08
2017-09-16T15:19:58.263Z,2.58
2017-09-16T15:22:26.550Z,1.50
2017-09-16T15:24:53.704Z,1.37
2017-09-16T15:27:21.354Z,2.53
2017-09-16T15:29:48.975Z,2.03
2017-09-16T15:32:17.408Z,2.92
2017-09-16T15:34:45.125Z,1.45
2017-09-16T15:37:12.344Z,2.12
2017-09-16T15:39:39.962Z,3.95
2017-09-16T15:42:06.921Z,4.93
2017-09-16T15:44:35.425Z,1.05
2017-09-16T15:47:03.313Z,2.45
2017-09-16T15:49:30.931Z,4.20
2017-09-16T15:51:58.053Z,2.25
2017-09-16T15:54:25.834Z,1.50
2017-09-16T15:56:55.095Z,1.73
2017-09-16T15:59:22.184Z,1.60
2017-09-16T16:01:50.070Z,1.50
2017-09-16T16:04:16.868Z,3.67
2017-09-16T16:09:16.733Z,2.37
2017-09-16T16:11:43.790Z,1.58
2017-09-16T16:14:10.885Z,4.05
2017-09-16T16:21:44.868Z,2.95
2017-09-16T16:26:43.310Z,8.32
2017-09-16T16:31:43.582Z,5.65
2017-09-16T16:52:09.647Z,4.20
2017-09-16T16:57:11.277Z,3.00
2017-09-16T17:02:14.165Z,2.67
2017-09-16T17:12:20.964Z,3.05
2017-09-16T17:14:53.782Z,3.40
2017-09-16T17:17:23.283Z,3.20
2017-09-16T17:25:07.868Z,2.10
2017-09-16T17:37:40.831Z,2.35
2017-09-16T18:10:26.123Z,4.65
2017-09-16T18:48:26.698Z,6.12
2017-09-16T19:03:47.396Z,4.32
2017-09-16T19:08:47.200Z,1.70
